sensor_id;sensor_type;location;lat;lon;timestamp;P1;durP1;ratioP1;P2;durP2;ratioP2
68178;SDS011;69812;42.632;23.440;2024-02-16T00:00:08;30.83;;;13.10;;
68178;SDS011;69812;42.632;23.440;2024-02-16T00:02:36;35.40;;;15.88;;
68178;SDS011;69812;42.632;23.440;2024-02-16T00:05:02;36.20;;;15.80;;
68178;SDS011;69812;42.632;23.440;2024-02-16T00:07:33;20.00;;;9.20;;
68178;SDS011;69812;42.632;23.440;2024-02-16T00:09:59;19.80;;;8.30;;
68178;SDS011;69812;42.632;23.440;2024-02-16T00:12:25;22.08;;;7.75;;
68178;SDS011;69812;42.632;23.440;2024-02-16T00:14:50;17.52;;;6.78;;
68178;SDS011;69812;42.632;23.440;2024-02-16T00:17:16;15.25;;;6.80;;
68178;SDS011;69812;42.632;23.440;2024-02-16T00:19:41;16.98;;;7.78;;
68178;SDS011;69812;42.632;23.440;2024-02-16T00:22:10;23.88;;;8.95;;
68178;SDS011;69812;42.632;23.440;2024-02-16T00:24:35;22.10;;;8.10;;
68178;SDS011;69812;42.632;23.440;2024-02-16T00:27:01;28.25;;;9.98;;
68178;SDS011;69812;42.632;23.440;2024-02-16T00:29:30;31.70;;;9.27;;
68178;SDS011;69812;42.632;23.440;2024-02-16T00:31:56;89.95;;;25.63;;
68178;SDS011;69812;42.632;23.440;2024-02-16T00:34:21;74.40;;;21.77;;
68178;SDS011;69812;42.632;23.440;2024-02-16T00:36:47;38.25;;;13.60;;
68178;SDS011;69812;42.632;23.440;2024-02-16T00:39:12;25.95;;;8.98;;
68178;SDS011;69812;42.632;23.440;2024-02-16T00:41:37;15.82;;;5.93;;
68178;SDS011;69812;42.632;23.440;2024-02-16T00:44:06;13.90;;;6.35;;
68178;SDS011;69812;42.632;23.440;2024-02-16T00:46:31;20.00;;;7.97;;
68178;SDS011;69812;42.632;23.440;2024-02-16T00:48:57;19.45;;;7.50;;
68178;SDS011;69812;42.632;23.440;2024-02-16T00:51:23;15.73;;;6.88;;
68178;SDS011;69812;42.632;23.440;2024-02-16T00:53:51;27.25;;;11.07;;
68178;SDS011;69812;42.632;23.440;2024-02-16T00:56:17;56.95;;;19.67;;
68178;SDS011;69812;42.632;23.440;2024-02-16T00:58:43;27.67;;;10.68;;
68178;SDS011;69812;42.632;23.440;2024-02-16T01:01:08;20.27;;;8.75;;
68178;SDS011;69812;42.632;23.440;2024-02-16T01:03:36;26.52;;;8.88;;
68178;SDS011;69812;42.632;23.440;2024-02-16T01:06:05;21.20;;;8.45;;
68178;SDS011;69812;42.632;23.440;2024-02-16T01:08:31;19.13;;;8.63;;
68178;SDS011;69812;42.632;23.440;2024-02-16T01:10:56;24.02;;;8.88;;
68178;SDS011;69812;42.632;23.440;2024-02-16T01:13:22;15.30;;;6.82;;
68178;SDS011;69812;42.632;23.440;2024-02-16T01:15:48;24.17;;;7.50;;
68178;SDS011;69812;42.632;23.440;2024-02-16T01:18:13;17.63;;;6.72;;
68178;SDS011;69812;42.632;23.440;2024-02-16T01:20:38;18.30;;;6.65;;
68178;SDS011;69812;42.632;23.440;2024-02-16T01:23:04;17.58;;;7.68;;
68178;SDS011;69812;42.632;23.440;2024-02-16T01:25:30;16.77;;;6.88;;
68178;SDS011;69812;42.632;23.440;2024-02-16T01:27:56;18.23;;;7.32;;
68178;SDS011;69812;42.632;23.440;2024-02-16T01:30:21;16.38;;;6.95;;
68178;SDS011;69812;42.632;23.440;2024-02-16T01:32:47;20.38;;;7.75;;
68178;SDS011;69812;42.632;23.440;2024-02-16T01:35:12;25.70;;;8.98;;
68178;SDS011;69812;42.632;23.440;2024-02-16T01:37:40;23.30;;;9.32;;
68178;SDS011;69812;42.632;23.440;2024-02-16T01:40:06;21.00;;;9.55;;
68178;SDS011;69812;42.632;23.440;2024-02-16T01:42:34;20.73;;;8.93;;
68178;SDS011;69812;42.632;23.440;2024-02-16T01:44:59;22.23;;;8.98;;
68178;SDS011;69812;42.632;23.440;2024-02-16T01:47:25;20.58;;;9.23;;
68178;SDS011;69812;42.632;23.440;2024-02-16T01:49:51;21.25;;;9.70;;
68178;SDS011;69812;42.632;23.440;2024-02-16T01:52:16;27.75;;;11.68;;
68178;SDS011;69812;42.632;23.440;2024-02-16T01:54:44;20.42;;;9.68;;
68178;SDS011;69812;42.632;23.440;2024-02-16T01:57:10;22.48;;;9.52;;
68178;SDS011;69812;42.632;23.440;2024-02-16T01:59:36;23.55;;;9.43;;
68178;SDS011;69812;42.632;23.440;2024-02-16T02:02:02;21.60;;;9.10;;
68178;SDS011;69812;42.632;23.440;2024-02-16T02:04:27;17.90;;;8.45;;
68178;SDS011;69812;42.632;23.440;2024-02-16T02:06:53;21.30;;;8.88;;
68178;SDS011;69812;42.632;23.440;2024-02-16T02:09:19;24.27;;;9.32;;
68178;SDS011;69812;42.632;23.440;2024-02-16T02:11:44;18.95;;;7.75;;
68178;SDS011;69812;42.632;23.440;2024-02-16T02:14:10;19.15;;;7.47;;
68178;SDS011;69812;42.632;23.440;2024-02-16T02:16:35;15.00;;;7.07;;
68178;SDS011;69812;42.632;23.440;2024-02-16T02:19:02;14.95;;;6.93;;
68178;SDS011;69812;42.632;23.440;2024-02-16T02:21:27;18.42;;;7.65;;
68178;SDS011;69812;42.632;23.440;2024-02-16T02:23:53;20.77;;;7.80;;
68178;SDS011;69812;42.632;23.440;2024-02-16T02:26:18;18.83;;;7.88;;
68178;SDS011;69812;42.632;23.440;2024-02-16T02:28:44;18.88;;;7.38;;
68178;SDS011;69812;42.632;23.440;2024-02-16T02:31:09;18.13;;;7.68;;
68178;SDS011;69812;42.632;23.440;2024-02-16T02:36:02;16.53;;;6.87;;
68178;SDS011;69812;42.632;23.440;2024-02-16T02:38:30;18.33;;;6.88;;
68178;SDS011;69812;42.632;23.440;2024-02-16T02:40:55;18.60;;;7.72;;
68178;SDS011;69812;42.632;23.440;2024-02-16T02:43:21;18.45;;;9.10;;
68178;SDS011;69812;42.632;23.440;2024-02-16T02:45:47;19.33;;;8.70;;
68178;SDS011;69812;42.632;23.440;2024-02-16T02:48:15;19.27;;;7.88;;
68178;SDS011;69812;42.632;23.440;2024-02-16T02:50:40;20.33;;;7.78;;
68178;SDS011;69812;42.632;23.440;2024-02-16T02:53:05;20.35;;;7.75;;
68178;SDS011;69812;42.632;23.440;2024-02-16T02:55:31;24.95;;;9.15;;
68178;SDS011;69812;42.632;23.440;2024-02-16T02:57:56;20.40;;;8.50;;
68178;SDS011;69812;42.632;23.440;2024-02-16T03:00:24;19.38;;;8.82;;
68178;SDS011;69812;42.632;23.440;2024-02-16T03:02:51;20.38;;;9.43;;
68178;SDS011;69812;42.632;23.440;2024-02-16T03:05:16;21.25;;;8.60;;
68178;SDS011;69812;42.632;23.440;2024-02-16T03:07:42;25.52;;;9.02;;
68178;SDS011;69812;42.632;23.440;2024-02-16T03:10:07;23.13;;;8.70;;
68178;SDS011;69812;42.632;23.440;2024-02-16T03:12:36;15.82;;;7.25;;
68178;SDS011;69812;42.632;23.440;2024-02-16T03:15:01;18.77;;;7.93;;
68178;SDS011;69812;42.632;23.440;2024-02-16T03:17:26;19.73;;;7.53;;
68178;SDS011;69812;42.632;23.440;2024-02-16T03:19:52;16.70;;;6.72;;
68178;SDS011;69812;42.632;23.440;2024-02-16T03:22:19;23.85;;;7.85;;
68178;SDS011;69812;42.632;23.440;2024-02-16T03:24:45;19.02;;;7.38;;
68178;SDS011;69812;42.632;23.440;2024-02-16T03:27:11;18.83;;;7.70;;
68178;SDS011;69812;42.632;23.440;2024-02-16T03:29:37;23.42;;;9.38;;
68178;SDS011;69812;42.632;23.440;2024-02-16T03:32:02;15.82;;;7.43;;
68178;SDS011;69812;42.632;23.440;2024-02-16T03:34:30;16.80;;;7.10;;
68178;SDS011;69812;42.632;23.440;2024-02-16T03:36:56;16.60;;;7.38;;
68178;SDS011;69812;42.632;23.440;2024-02-16T03:39:21;17.33;;;6.75;;
68178;SDS011;69812;42.632;23.440;2024-02-16T03:41:47;13.70;;;6.38;;
68178;SDS011;69812;42.632;23.440;2024-02-16T03:44:14;16.30;;;7.22;;
68178;SDS011;69812;42.632;23.440;2024-02-16T03:46:42;17.05;;;8.13;;
68178;SDS011;69812;42.632;23.440;2024-02-16T03:49:08;17.33;;;7.60;;
68178;SDS011;69812;42.632;23.440;2024-02-16T03:51:33;20.17;;;8.35;;
68178;SDS011;69812;42.632;23.440;2024-02-16T03:53:59;15.95;;;7.47;;
68178;SDS011;69812;42.632;23.440;2024-02-16T03:56:31;21.10;;;9.10;;
68178;SDS011;69812;42.632;23.440;2024-02-16T03:58:57;19.40;;;8.15;;
68178;SDS011;69812;42.632;23.440;2024-02-16T04:01:23;28.00;;;13.27;;
68178;SDS011;69812;42.632;23.440;2024-02-16T04:03:49;19.65;;;8.15;;
68178;SDS011;69812;42.632;23.440;2024-02-16T04:06:14;23.70;;;9.20;;
68178;SDS011;69812;42.632;23.440;2024-02-16T04:08:39;19.92;;;9.30;;
68178;SDS011;69812;42.632;23.440;2024-02-16T04:11:05;28.65;;;13.30;;
68178;SDS011;69812;42.632;23.440;2024-02-16T04:13:31;27.80;;;10.68;;
68178;SDS011;69812;42.632;23.440;2024-02-16T04:16:00;21.55;;;9.27;;
68178;SDS011;69812;42.632;23.440;2024-02-16T04:18:25;22.20;;;8.75;;
68178;SDS011;69812;42.632;23.440;2024-02-16T04:20:50;21.85;;;9.57;;
68178;SDS011;69812;42.632;23.440;2024-02-16T04:23:16;27.30;;;12.35;;
68178;SDS011;69812;42.632;23.440;2024-02-16T04:25:41;22.70;;;11.52;;
68178;SDS011;69812;42.632;23.440;2024-02-16T04:28:07;25.90;;;10.95;;
68178;SDS011;69812;42.632;23.440;2024-02-16T04:30:32;18.77;;;9.25;;
68178;SDS011;69812;42.632;23.440;2024-02-16T04:32:57;21.85;;;9.90;;
68178;SDS011;69812;42.632;23.440;2024-02-16T04:37:50;21.40;;;8.27;;
68178;SDS011;69812;42.632;23.440;2024-02-16T04:40:16;20.38;;;8.88;;
68178;SDS011;69812;42.632;23.440;2024-02-16T04:42:41;22.60;;;9.45;;
68178;SDS011;69812;42.632;23.440;2024-02-16T04:45:07;21.50;;;9.00;;
68178;SDS011;69812;42.632;23.440;2024-02-16T04:47:35;20.92;;;9.73;;
68178;SDS011;69812;42.632;23.440;2024-02-16T04:50:00;30.80;;;11.27;;
68178;SDS011;69812;42.632;23.440;2024-02-16T04:52:25;32.88;;;11.63;;
68178;SDS011;69812;42.632;23.440;2024-02-16T04:57:21;21.55;;;11.45;;
68178;SDS011;69812;42.632;23.440;2024-02-16T04:59:48;24.45;;;10.45;;
68178;SDS011;69812;42.632;23.440;2024-02-16T05:04:39;31.90;;;11.77;;
68178;SDS011;69812;42.632;23.440;2024-02-16T05:07:04;20.05;;;9.18;;
68178;SDS011;69812;42.632;23.440;2024-02-16T05:09:31;23.85;;;9.25;;
68178;SDS011;69812;42.632;23.440;2024-02-16T05:14:25;24.23;;;8.93;;
68178;SDS011;69812;42.632;23.440;2024-02-16T05:16:50;21.80;;;9.18;;
68178;SDS011;69812;42.632;23.440;2024-02-16T05:19:16;21.75;;;9.48;;
68178;SDS011;69812;42.632;23.440;2024-02-16T05:21:41;19.85;;;8.73;;
68178;SDS011;69812;42.632;23.440;2024-02-16T05:24:06;23.65;;;10.68;;
68178;SDS011;69812;42.632;23.440;2024-02-16T05:26:32;24.40;;;9.80;;
68178;SDS011;69812;42.632;23.440;2024-02-16T05:28:57;25.95;;;9.63;;
68178;SDS011;69812;42.632;23.440;2024-02-16T05:31:25;27.17;;;10.25;;
68178;SDS011;69812;42.632;23.440;2024-02-16T05:33:50;24.83;;;9.80;;
68178;SDS011;69812;42.632;23.440;2024-02-16T05:36:19;25.85;;;10.73;;
68178;SDS011;69812;42.632;23.440;2024-02-16T05:38:48;22.63;;;9.85;;
68178;SDS011;69812;42.632;23.440;2024-02-16T05:41:16;24.27;;;10.90;;
68178;SDS011;69812;42.632;23.440;2024-02-16T05:43:43;27.83;;;11.50;;
68178;SDS011;69812;42.632;23.440;2024-02-16T05:46:16;42.90;;;15.23;;
68178;SDS011;69812;42.632;23.440;2024-02-16T05:48:42;34.63;;;14.52;;
68178;SDS011;69812;42.632;23.440;2024-02-16T05:51:09;32.50;;;13.55;;
68178;SDS011;69812;42.632;23.440;2024-02-16T05:53:38;38.05;;;14.00;;
68178;SDS011;69812;42.632;23.440;2024-02-16T05:56:04;40.42;;;14.60;;
68178;SDS011;69812;42.632;23.440;2024-02-16T05:58:30;37.58;;;15.05;;
68178;SDS011;69812;42.632;23.440;2024-02-16T06:00:55;40.05;;;18.50;;
68178;SDS011;69812;42.632;23.440;2024-02-16T06:03:21;34.83;;;15.85;;
68178;SDS011;69812;42.632;23.440;2024-02-16T06:05:47;44.55;;;21.88;;
68178;SDS011;69812;42.632;23.440;2024-02-16T06:08:12;33.58;;;14.70;;
68178;SDS011;69812;42.632;23.440;2024-02-16T06:10:38;32.90;;;15.65;;
68178;SDS011;69812;42.632;23.440;2024-02-16T06:13:11;29.15;;;13.70;;
68178;SDS011;69812;42.632;23.440;2024-02-16T06:15:36;27.00;;;13.70;;
68178;SDS011;69812;42.632;23.440;2024-02-16T06:18:04;28.67;;;14.07;;
68178;SDS011;69812;42.632;23.440;2024-02-16T06:20:30;25.88;;;12.90;;
68178;SDS011;69812;42.632;23.440;2024-02-16T06:22:55;26.58;;;14.63;;
68178;SDS011;69812;42.632;23.440;2024-02-16T06:25:20;29.65;;;15.43;;
68178;SDS011;69812;42.632;23.440;2024-02-16T06:27:46;34.72;;;18.40;;
68178;SDS011;69812;42.632;23.440;2024-02-16T06:30:15;36.15;;;15.02;;
68178;SDS011;69812;42.632;23.440;2024-02-16T06:32:40;23.55;;;13.52;;
68178;SDS011;69812;42.632;23.440;2024-02-16T06:35:06;29.60;;;14.73;;
68178;SDS011;69812;42.632;23.440;2024-02-16T06:37:36;34.78;;;17.63;;
68178;SDS011;69812;42.632;23.440;2024-02-16T06:40:03;28.33;;;14.23;;
68178;SDS011;69812;42.632;23.440;2024-02-16T06:42:33;24.73;;;13.07;;
68178;SDS011;69812;42.632;23.440;2024-02-16T06:45:00;29.98;;;15.82;;
68178;SDS011;69812;42.632;23.440;2024-02-16T06:47:25;29.30;;;14.82;;
68178;SDS011;69812;42.632;23.440;2024-02-16T06:49:51;25.10;;;13.27;;
68178;SDS011;69812;42.632;23.440;2024-02-16T06:52:19;26.80;;;14.82;;
68178;SDS011;69812;42.632;23.440;2024-02-16T06:54:45;27.50;;;14.98;;
68178;SDS011;69812;42.632;23.440;2024-02-16T06:57:10;26.98;;;14.55;;
68178;SDS011;69812;42.632;23.440;2024-02-16T06:59:38;25.88;;;14.02;;
68178;SDS011;69812;42.632;23.440;2024-02-16T07:02:03;25.50;;;13.93;;
68178;SDS011;69812;42.632;23.440;2024-02-16T07:04:29;26.83;;;15.07;;
68178;SDS011;69812;42.632;23.440;2024-02-16T07:06:57;34.25;;;20.25;;
68178;SDS011;69812;42.632;23.440;2024-02-16T07:09:22;30.23;;;16.13;;
68178;SDS011;69812;42.632;23.440;2024-02-16T07:11:50;29.42;;;16.23;;
68178;SDS011;69812;42.632;23.440;2024-02-16T07:14:16;27.60;;;14.85;;
68178;SDS011;69812;42.632;23.440;2024-02-16T07:16:44;25.52;;;15.07;;
68178;SDS011;69812;42.632;23.440;2024-02-16T07:19:09;27.25;;;16.70;;
68178;SDS011;69812;42.632;23.440;2024-02-16T07:21:35;27.85;;;19.55;;
68178;SDS011;69812;42.632;23.440;2024-02-16T07:24:02;24.60;;;14.27;;
68178;SDS011;69812;42.632;23.440;2024-02-16T07:26:28;24.50;;;14.98;;
68178;SDS011;69812;42.632;23.440;2024-02-16T07:28:54;31.38;;;16.52;;
68178;SDS011;69812;42.632;23.440;2024-02-16T07:31:19;24.15;;;14.55;;
68178;SDS011;69812;42.632;23.440;2024-02-16T07:33:45;25.60;;;14.85;;
68178;SDS011;69812;42.632;23.440;2024-02-16T07:36:10;23.73;;;13.50;;
68178;SDS011;69812;42.632;23.440;2024-02-16T07:38:39;24.95;;;13.15;;
68178;SDS011;69812;42.632;23.440;2024-02-16T07:41:04;22.45;;;11.68;;
68178;SDS011;69812;42.632;23.440;2024-02-16T07:43:30;21.02;;;11.98;;
68178;SDS011;69812;42.632;23.440;2024-02-16T07:45:56;25.10;;;12.60;;
68178;SDS011;69812;42.632;23.440;2024-02-16T07:48:22;22.52;;;11.82;;
68178;SDS011;69812;42.632;23.440;2024-02-16T07:50:48;23.38;;;12.13;;
68178;SDS011;69812;42.632;23.440;2024-02-16T07:53:15;23.70;;;11.02;;
68178;SDS011;69812;42.632;23.440;2024-02-16T07:55:41;26.50;;;11.25;;
68178;SDS011;69812;42.632;23.440;2024-02-16T07:58:09;25.05;;;12.18;;
68178;SDS011;69812;42.632;23.440;2024-02-16T08:00:37;22.85;;;11.70;;
68178;SDS011;69812;42.632;23.440;2024-02-16T08:03:05;26.25;;;11.38;;
68178;SDS011;69812;42.632;23.440;2024-02-16T08:05:31;21.75;;;10.90;;
68178;SDS011;69812;42.632;23.440;2024-02-16T08:07:57;23.90;;;10.43;;
68178;SDS011;69812;42.632;23.440;2024-02-16T08:10:22;23.90;;;11.30;;
68178;SDS011;69812;42.632;23.440;2024-02-16T08:12:49;22.70;;;10.63;;
68178;SDS011;69812;42.632;23.440;2024-02-16T08:15:15;19.60;;;10.25;;
68178;SDS011;69812;42.632;23.440;2024-02-16T08:17:47;27.38;;;10.13;;
68178;SDS011;69812;42.632;23.440;2024-02-16T08:20:13;21.60;;;10.85;;
68178;SDS011;69812;42.632;23.440;2024-02-16T08:22:39;24.92;;;10.38;;
68178;SDS011;69812;42.632;23.440;2024-02-16T08:25:08;26.92;;;11.02;;
68178;SDS011;69812;42.632;23.440;2024-02-16T08:27:33;19.98;;;10.65;;
68178;SDS011;69812;42.632;23.440;2024-02-16T08:29:59;22.60;;;10.55;;
68178;SDS011;69812;42.632;23.440;2024-02-16T08:32:26;21.77;;;10.13;;
68178;SDS011;69812;42.632;23.440;2024-02-16T08:34:54;24.30;;;11.25;;
68178;SDS011;69812;42.632;23.440;2024-02-16T08:37:21;19.60;;;9.25;;
68178;SDS011;69812;42.632;23.440;2024-02-16T08:39:46;20.20;;;10.05;;
68178;SDS011;69812;42.632;23.440;2024-02-16T08:42:12;20.15;;;9.70;;
68178;SDS011;69812;42.632;23.440;2024-02-16T08:44:37;20.17;;;9.82;;
68178;SDS011;69812;42.632;23.440;2024-02-16T08:47:05;25.92;;;11.38;;
68178;SDS011;69812;42.632;23.440;2024-02-16T08:49:33;18.65;;;9.98;;
68178;SDS011;69812;42.632;23.440;2024-02-16T08:52:05;24.65;;;9.68;;
68178;SDS011;69812;42.632;23.440;2024-02-16T08:54:33;19.42;;;10.05;;
68178;SDS011;69812;42.632;23.440;2024-02-16T08:57:01;18.77;;;9.35;;
68178;SDS011;69812;42.632;23.440;2024-02-16T08:59:27;22.98;;;9.73;;
68178;SDS011;69812;42.632;23.440;2024-02-16T09:01:56;24.58;;;11.30;;
68178;SDS011;69812;42.632;23.440;2024-02-16T09:04:23;26.52;;;13.68;;
68178;SDS011;69812;42.632;23.440;2024-02-16T09:06:49;33.83;;;13.82;;
68178;SDS011;69812;42.632;23.440;2024-02-16T09:09:16;26.42;;;13.35;;
68178;SDS011;69812;42.632;23.440;2024-02-16T09:11:41;26.58;;;12.27;;
68178;SDS011;69812;42.632;23.440;2024-02-16T09:14:06;27.13;;;13.35;;
68178;SDS011;69812;42.632;23.440;2024-02-16T09:16:32;29.98;;;13.38;;
68178;SDS011;69812;42.632;23.440;2024-02-16T09:18:58;27.85;;;12.50;;
68178;SDS011;69812;42.632;23.440;2024-02-16T09:21:29;23.27;;;10.88;;
68178;SDS011;69812;42.632;23.440;2024-02-16T09:23:55;16.85;;;7.82;;
68178;SDS011;69812;42.632;23.440;2024-02-16T09:26:26;18.35;;;8.88;;
68178;SDS011;69812;42.632;23.440;2024-02-16T09:28:55;18.00;;;8.68;;
68178;SDS011;69812;42.632;23.440;2024-02-16T09:31:23;18.40;;;8.05;;
68178;SDS011;69812;42.632;23.440;2024-02-16T09:33:48;15.85;;;7.15;;
68178;SDS011;69812;42.632;23.440;2024-02-16T09:36:16;13.50;;;7.15;;
68178;SDS011;69812;42.632;23.440;2024-02-16T09:38:42;16.73;;;8.10;;
68178;SDS011;69812;42.632;23.440;2024-02-16T09:41:07;15.43;;;7.85;;
68178;SDS011;69812;42.632;23.440;2024-02-16T09:43:33;12.80;;;6.47;;
68178;SDS011;69812;42.632;23.440;2024-02-16T09:46:00;10.63;;;6.32;;
68178;SDS011;69812;42.632;23.440;2024-02-16T09:48:26;11.05;;;6.60;;
68178;SDS011;69812;42.632;23.440;2024-02-16T09:50:53;10.00;;;5.07;;
68178;SDS011;69812;42.632;23.440;2024-02-16T09:53:19;10.80;;;5.97;;
68178;SDS011;69812;42.632;23.440;2024-02-16T09:55:49;10.20;;;5.20;;
68178;SDS011;69812;42.632;23.440;2024-02-16T09:58:17;8.57;;;4.40;;
68178;SDS011;69812;42.632;23.440;2024-02-16T10:06:07;8.48;;;4.47;;
68178;SDS011;69812;42.632;23.440;2024-02-16T10:08:34;6.50;;;3.60;;
68178;SDS011;69812;42.632;23.440;2024-02-16T10:11:12;6.03;;;3.60;;
68178;SDS011;69812;42.632;23.440;2024-02-16T10:13:39;6.55;;;3.25;;
68178;SDS011;69812;42.632;23.440;2024-02-16T10:16:08;8.27;;;4.10;;
68178;SDS011;69812;42.632;23.440;2024-02-16T10:18:40;10.40;;;4.35;;
68178;SDS011;69812;42.632;23.440;2024-02-16T10:21:05;7.93;;;4.65;;
68178;SDS011;69812;42.632;23.440;2024-02-16T10:23:31;8.25;;;4.07;;
68178;SDS011;69812;42.632;23.440;2024-02-16T10:25:59;11.20;;;5.07;;
68178;SDS011;69812;42.632;23.440;2024-02-16T10:28:24;8.35;;;4.50;;
68178;SDS011;69812;42.632;23.440;2024-02-16T10:30:59;12.23;;;5.05;;
68178;SDS011;69812;42.632;23.440;2024-02-16T10:33:26;10.63;;;4.90;;
68178;SDS011;69812;42.632;23.440;2024-02-16T10:38:21;7.40;;;4.35;;
68178;SDS011;69812;42.632;23.440;2024-02-16T10:40:47;9.45;;;4.88;;
68178;SDS011;69812;42.632;23.440;2024-02-16T10:43:13;8.27;;;4.65;;
68178;SDS011;69812;42.632;23.440;2024-02-16T10:45:40;9.27;;;4.43;;
68178;SDS011;69812;42.632;23.440;2024-02-16T10:48:09;9.65;;;5.03;;
68178;SDS011;69812;42.632;23.440;2024-02-16T10:50:37;9.57;;;4.40;;
68178;SDS011;69812;42.632;23.440;2024-02-16T10:55:51;7.75;;;4.03;;
68178;SDS011;69812;42.632;23.440;2024-02-16T10:58:17;7.38;;;4.72;;
68178;SDS011;69812;42.632;23.440;2024-02-16T11:00:53;8.70;;;4.45;;
68178;SDS011;69812;42.632;23.440;2024-02-16T11:03:26;8.23;;;4.60;;
68178;SDS011;69812;42.632;23.440;2024-02-16T11:05:53;6.75;;;3.90;;
68178;SDS011;69812;42.632;23.440;2024-02-16T11:08:20;7.28;;;3.95;;
68178;SDS011;69812;42.632;23.440;2024-02-16T11:10:55;7.25;;;3.65;;
68178;SDS011;69812;42.632;23.440;2024-02-16T11:13:33;8.70;;;5.07;;
68178;SDS011;69812;42.632;23.440;2024-02-16T11:16:03;7.88;;;4.40;;
68178;SDS011;69812;42.632;23.440;2024-02-16T11:18:36;8.40;;;4.53;;
68178;SDS011;69812;42.632;23.440;2024-02-16T11:21:02;9.55;;;5.10;;
68178;SDS011;69812;42.632;23.440;2024-02-16T11:23:29;10.35;;;4.85;;
68178;SDS011;69812;42.632;23.440;2024-02-16T11:28:28;7.88;;;4.85;;
68178;SDS011;69812;42.632;23.440;2024-02-16T11:30:56;10.05;;;4.90;;
68178;SDS011;69812;42.632;23.440;2024-02-16T11:33:21;9.82;;;5.13;;
68178;SDS011;69812;42.632;23.440;2024-02-16T11:36:01;9.75;;;4.78;;
68178;SDS011;69812;42.632;23.440;2024-02-16T11:38:34;8.20;;;4.97;;
68178;SDS011;69812;42.632;23.440;2024-02-16T11:41:01;7.95;;;4.78;;
68178;SDS011;69812;42.632;23.440;2024-02-16T11:43:31;8.23;;;4.90;;
68178;SDS011;69812;42.632;23.440;2024-02-16T11:46:10;8.52;;;4.53;;
68178;SDS011;69812;42.632;23.440;2024-02-16T11:48:39;7.65;;;4.18;;
68178;SDS011;69812;42.632;23.440;2024-02-16T11:51:04;7.43;;;4.22;;
68178;SDS011;69812;42.632;23.440;2024-02-16T11:53:30;8.43;;;4.15;;
68178;SDS011;69812;42.632;23.440;2024-02-16T11:55:56;9.20;;;4.13;;
68178;SDS011;69812;42.632;23.440;2024-02-16T11:58:23;8.00;;;4.82;;
68178;SDS011;69812;42.632;23.440;2024-02-16T12:00:48;10.70;;;4.32;;
68178;SDS011;69812;42.632;23.440;2024-02-16T12:03:18;6.22;;;3.75;;
68178;SDS011;69812;42.632;23.440;2024-02-16T12:05:51;6.78;;;3.63;;
68178;SDS011;69812;42.632;23.440;2024-02-16T12:08:18;8.55;;;4.20;;
68178;SDS011;69812;42.632;23.440;2024-02-16T12:10:44;6.47;;;3.53;;
68178;SDS011;69812;42.632;23.440;2024-02-16T12:13:09;5.53;;;3.28;;
68178;SDS011;69812;42.632;23.440;2024-02-16T12:15:37;7.45;;;4.05;;
68178;SDS011;69812;42.632;23.440;2024-02-16T12:18:03;7.60;;;3.75;;
68178;SDS011;69812;42.632;23.440;2024-02-16T12:20:29;6.15;;;3.38;;
68178;SDS011;69812;42.632;23.440;2024-02-16T12:22:56;7.00;;;4.03;;
68178;SDS011;69812;42.632;23.440;2024-02-16T12:25:27;6.65;;;4.10;;
68178;SDS011;69812;42.632;23.440;2024-02-16T12:27:55;7.05;;;3.97;;
68178;SDS011;69812;42.632;23.440;2024-02-16T12:30:20;7.43;;;4.00;;
68178;SDS011;69812;42.632;23.440;2024-02-16T12:32:47;7.18;;;4.07;;
68178;SDS011;69812;42.632;23.440;2024-02-16T12:35:13;7.78;;;4.13;;
68178;SDS011;69812;42.632;23.440;2024-02-16T12:37:41;7.63;;;4.00;;
68178;SDS011;69812;42.632;23.440;2024-02-16T12:40:13;7.47;;;4.05;;
68178;SDS011;69812;42.632;23.440;2024-02-16T12:42:43;8.40;;;3.90;;
68178;SDS011;69812;42.632;23.440;2024-02-16T12:45:09;7.68;;;4.10;;
68178;SDS011;69812;42.632;23.440;2024-02-16T12:47:35;8.35;;;4.40;;
68178;SDS011;69812;42.632;23.440;2024-02-16T12:50:04;7.75;;;3.92;;
68178;SDS011;69812;42.632;23.440;2024-02-16T12:52:29;6.68;;;4.03;;
68178;SDS011;69812;42.632;23.440;2024-02-16T12:54:56;8.55;;;4.72;;
68178;SDS011;69812;42.632;23.440;2024-02-16T12:57:23;8.52;;;4.40;;
68178;SDS011;69812;42.632;23.440;2024-02-16T12:59:49;8.02;;;4.00;;
68178;SDS011;69812;42.632;23.440;2024-02-16T13:02:14;7.70;;;4.20;;
68178;SDS011;69812;42.632;23.440;2024-02-16T13:04:40;7.03;;;4.00;;
68178;SDS011;69812;42.632;23.440;2024-02-16T13:07:05;6.50;;;3.92;;
68178;SDS011;69812;42.632;23.440;2024-02-16T13:09:30;7.38;;;4.00;;
68178;SDS011;69812;42.632;23.440;2024-02-16T13:11:59;7.50;;;4.32;;
68178;SDS011;69812;42.632;23.440;2024-02-16T13:14:25;7.95;;;4.20;;
68178;SDS011;69812;42.632;23.440;2024-02-16T13:19:19;7.88;;;4.35;;
68178;SDS011;69812;42.632;23.440;2024-02-16T13:21:45;8.52;;;4.20;;
68178;SDS011;69812;42.632;23.440;2024-02-16T13:24:10;7.78;;;4.15;;
68178;SDS011;69812;42.632;23.440;2024-02-16T13:26:35;7.63;;;3.83;;
68178;SDS011;69812;42.632;23.440;2024-02-16T13:29:01;8.30;;;4.18;;
68178;SDS011;69812;42.632;23.440;2024-02-16T13:31:26;9.38;;;4.28;;
68178;SDS011;69812;42.632;23.440;2024-02-16T13:33:59;10.48;;;5.20;;
68178;SDS011;69812;42.632;23.440;2024-02-16T13:36:24;8.43;;;4.00;;
68178;SDS011;69812;42.632;23.440;2024-02-16T13:38:50;7.70;;;4.10;;
68178;SDS011;69812;42.632;23.440;2024-02-16T13:41:17;8.32;;;4.43;;
68178;SDS011;69812;42.632;23.440;2024-02-16T13:43:43;9.43;;;4.90;;
68178;SDS011;69812;42.632;23.440;2024-02-16T13:46:09;11.70;;;5.97;;
68178;SDS011;69812;42.632;23.440;2024-02-16T13:48:34;10.15;;;5.32;;
68178;SDS011;69812;42.632;23.440;2024-02-16T13:51:02;11.25;;;5.05;;
68178;SDS011;69812;42.632;23.440;2024-02-16T13:53:30;11.73;;;5.68;;
68178;SDS011;69812;42.632;23.440;2024-02-16T13:55:56;9.75;;;5.50;;
68178;SDS011;69812;42.632;23.440;2024-02-16T13:58:25;13.82;;;5.40;;
68178;SDS011;69812;42.632;23.440;2024-02-16T14:00:53;10.02;;;5.22;;
68178;SDS011;69812;42.632;23.440;2024-02-16T14:03:18;9.38;;;4.70;;
68178;SDS011;69812;42.632;23.440;2024-02-16T14:05:44;9.35;;;4.75;;
68178;SDS011;69812;42.632;23.440;2024-02-16T14:10:37;9.32;;;5.07;;
68178;SDS011;69812;42.632;23.440;2024-02-16T14:13:03;10.68;;;5.07;;
68178;SDS011;69812;42.632;23.440;2024-02-16T14:15:29;10.23;;;4.97;;
68178;SDS011;69812;42.632;23.440;2024-02-16T14:17:54;8.35;;;4.70;;
68178;SDS011;69812;42.632;23.440;2024-02-16T14:20:22;8.30;;;4.72;;
68178;SDS011;69812;42.632;23.440;2024-02-16T14:22:49;9.82;;;4.90;;
68178;SDS011;69812;42.632;23.440;2024-02-16T14:25:15;10.23;;;4.93;;
68178;SDS011;69812;42.632;23.440;2024-02-16T14:27:40;8.80;;;4.68;;
68178;SDS011;69812;42.632;23.440;2024-02-16T14:30:16;9.27;;;4.50;;
68178;SDS011;69812;42.632;23.440;2024-02-16T14:32:42;9.73;;;5.13;;
68178;SDS011;69812;42.632;23.440;2024-02-16T14:35:07;10.70;;;5.85;;
68178;SDS011;69812;42.632;23.440;2024-02-16T14:37:33;10.07;;;5.13;;
68178;SDS011;69812;42.632;23.440;2024-02-16T14:39:59;9.32;;;5.00;;
68178;SDS011;69812;42.632;23.440;2024-02-16T14:42:28;9.38;;;4.93;;
68178;SDS011;69812;42.632;23.440;2024-02-16T14:44:54;8.38;;;4.75;;
68178;SDS011;69812;42.632;23.440;2024-02-16T14:47:21;10.88;;;4.60;;